Time;durP1;ratioP1;P1;durP2;ratioP2;P2;SDS_P1;SDS_P2;PMS_P1;PMS_P2;Temp;Humidity;BMP_temperature;BMP_pressure;BME280_temperature;BME280_humidity;BME280_pressure;Samples;Min_cycle;Max_cycle;Signal;HPM_P1;HPM_P2
2023/05/22 00:00:06;;;;;;;6.00;5.37;;;;;;;;;;5072955;28;20540;-57
2023/05/22 00:02:32;;;;;;;5.57;5.03;;;;;;;;;;5072819;28;20206;-57
2023/05/22 00:04:59;;;;;;;5.83;5.33;;;;;;;;;;5072921;28;20223;-57
2023/05/22 00:07:26;;;;;;;6.07;5.10;;;;;;;;;;5072801;28;20199;-57
2023/05/22 00:09:53;;;;;;;7.43;5.67;;;;;;;;;;5072851;28;20208;-56
2023/05/22 00:12:19;;;;;;;6.03;5.40;;;;;;;;;;5070716;28;20206;-56
2023/05/22 00:14:45;;;;;;;5.87;5.33;;;;;;;;;;5071115;28;20195;-56
2023/05/22 00:17:13;;;;;;;5.77;5.17;;;;;;;;;;5072870;28;20245;-56
2023/05/22 00:19:39;;;;;;;6.90;5.50;;;;;;;;;;5072709;28;20200;-56
2023/05/22 00:22:05;;;;;;;5.90;5.30;;;;;;;;;;5072850;28;20217;-55
2023/05/22 00:24:31;;;;;;;6.20;5.70;;;;;;;;;;5072573;28;20325;-56
2023/05/22 00:26:58;;;;;;;6.40;5.03;;;;;;;;;;5072253;28;20667;-56
2023/05/22 00:29:24;;;;;;;5.60;5.10;;;;;;;;;;5072320;28;20199;-56
2023/05/22 00:31:50;;;;;;;10.63;5.70;;;;;;;;;;5072419;28;20563;-56
2023/05/22 00:34:16;;;;;;;5.77;5.20;;;;;;;;;;5072242;28;20199;-56
2023/05/22 00:36:42;;;;;;;5.90;5.17;;;;;;;;;;5072153;28;20556;-56
2023/05/22 00:39:09;;;;;;;6.70;5.80;;;;;;;;;;5072192;28;20210;-56
2023/05/22 00:41:35;;;;;;;7.17;5.20;;;;;;;;;;5072187;28;20191;-55
2023/05/22 00:44:02;;;;;;;5.67;5.17;;;;;;;;;;5071997;28;20246;-55
2023/05/22 00:46:28;;;;;;;5.23;4.83;;;;;;;;;;5072016;28;20302;-55
2023/05/22 00:48:54;;;;;;;5.60;5.10;;;;;;;;;;5072152;28;20257;-56
2023/05/22 00:51:20;;;;;;;6.20;5.60;;;;;;;;;;5072181;28;20203;-56
2023/05/22 00:53:47;;;;;;;8.33;5.73;;;;;;;;;;5071519;28;20199;-56
2023/05/22 00:56:14;;;;;;;6.10;5.40;;;;;;;;;;5072008;28;20246;-56
2023/05/22 00:58:40;;;;;;;5.90;5.40;;;;;;;;;;5071801;28;20618;-56
2023/05/22 01:01:08;;;;;;;6.37;5.00;;;;;;;;;;5072045;28;20218;-55
2023/05/22 01:03:36;;;;;;;5.83;5.10;;;;;;;;;;5071780;28;20231;-55
2023/05/22 01:06:02;;;;;;;5.23;4.83;;;;;;;;;;5072043;28;20237;-56
2023/05/22 01:08:28;;;;;;;5.00;4.60;;;;;;;;;;5071768;28;20203;-56
2023/05/22 01:10:59;;;;;;;6.10;5.50;;;;;;;;;;5071674;28;20202;-56
2023/05/22 01:13:28;;;;;;;7.47;5.97;;;;;;;;;;5071767;28;20198;-55
2023/05/22 01:15:56;;;;;;;5.87;5.37;;;;;;;;;;5071645;28;20226;-55
2023/05/22 01:18:28;;;;;;;6.20;5.07;;;;;;;;;;5071836;28;20305;-56
2023/05/22 01:20:57;;;;;;;7.70;5.23;;;;;;;;;;5071783;28;20214;-54
2023/05/22 01:23:35;;;;;;;5.67;5.20;;;;;;;;;;5071475;28;20234;-57
2023/05/22 01:26:20;;;;;;;5.53;5.03;;;;;;;;;;5071678;28;20279;-55
2023/05/22 01:28:55;;;;;;;5.73;5.23;;;;;;;;;;5071531;28;20195;-56
2023/05/22 01:31:24;;;;;;;5.40;4.90;;;;;;;;;;5071771;28;20205;-55
2023/05/22 01:33:51;;;;;;;5.63;5.13;;;;;;;;;;5071540;28;20223;-56
2023/05/22 01:36:19;;;;;;;5.77;5.17;;;;;;;;;;5071619;28;20234;-57
2023/05/22 01:38:45;;;;;;;5.77;5.03;;;;;;;;;;5071388;28;20207;-55
2023/05/22 01:41:11;;;;;;;7.27;5.47;;;;;;;;;;5071502;28;20290;-56
2023/05/22 01:43:37;;;;;;;5.50;5.00;;;;;;;;;;5071427;28;20223;-56
2023/05/22 01:46:05;;;;;;;7.10;5.20;;;;;;;;;;5071436;28;20687;-56
2023/05/22 01:48:32;;;;;;;5.77;5.27;;;;;;;;;;5071424;28;20199;-56
2023/05/22 01:51:02;;;;;;;5.43;4.93;;;;;;;;;;5071541;28;20203;-57
2023/05/22 01:53:30;;;;;;;9.33;5.57;;;;;;;;;;5071382;28;20253;-56
2023/05/22 01:56:01;;;;;;;5.90;5.30;;;;;;;;;;5071177;28;20204;-57
2023/05/22 01:58:30;;;;;;;7.17;5.03;;;;;;;;;;5071137;28;20206;-56
2023/05/22 02:00:59;;;;;;;9.67;5.63;;;;;;;;;;5070859;28;20237;-56
2023/05/22 02:03:29;;;;;;;5.83;5.33;;;;;;;;;;5070774;28;20306;-55
2023/05/22 02:05:58;;;;;;;5.33;4.83;;;;;;;;;;5073105;28;20211;-55
2023/05/22 02:08:25;;;;;;;5.47;4.97;;;;;;;;;;5074972;28;20256;-56
2023/05/22 02:10:52;;;;;;;6.10;5.60;;;;;;;;;;5074857;28;20211;-56
2023/05/22 02:13:18;;;;;;;5.60;5.00;;;;;;;;;;5074908;28;20616;-55
2023/05/22 02:15:45;;;;;;;5.77;5.27;;;;;;;;;;5074535;28;20195;-55
2023/05/22 02:18:12;;;;;;;5.90;5.30;;;;;;;;;;5074666;28;20584;-55
2023/05/22 02:20:38;;;;;;;5.70;5.07;;;;;;;;;;5074799;28;20727;-55
2023/05/22 02:23:05;;;;;;;5.80;5.20;;;;;;;;;;5074570;28;20237;-55
2023/05/22 02:25:31;;;;;;;6.07;5.47;;;;;;;;;;5074667;28;20261;-56
2023/05/22 02:27:57;;;;;;;6.07;5.47;;;;;;;;;;5074558;28;20272;-55
2023/05/22 02:30:23;;;;;;;6.20;5.33;;;;;;;;;;5074740;28;20203;-55
2023/05/22 02:32:49;;;;;;;5.87;5.30;;;;;;;;;;5074696;28;20600;-55
2023/05/22 02:35:15;;;;;;;5.70;5.20;;;;;;;;;;5074491;28;20681;-55
2023/05/22 02:37:41;;;;;;;5.67;5.17;;;;;;;;;;5074464;28;20217;-56
2023/05/22 02:40:09;;;;;;;5.53;4.97;;;;;;;;;;5074410;28;20730;-56
2023/05/22 02:42:35;;;;;;;5.87;5.37;;;;;;;;;;5074510;28;20199;-56
2023/05/22 02:45:01;;;;;;;5.30;4.80;;;;;;;;;;5074591;28;20270;-56
2023/05/22 02:47:27;;;;;;;5.30;4.90;;;;;;;;;;5074257;28;20550;-57
2023/05/22 02:49:53;;;;;;;5.30;4.90;;;;;;;;;;5074202;28;20671;-56
2023/05/22 02:52:19;;;;;;;6.00;5.40;;;;;;;;;;5074463;28;20250;-56
2023/05/22 02:54:45;;;;;;;5.60;5.10;;;;;;;;;;5074041;28;20197;-56
2023/05/22 02:57:13;;;;;;;6.17;5.40;;;;;;;;;;5074210;28;20260;-57
2023/05/22 02:59:39;;;;;;;5.50;4.97;;;;;;;;;;5074117;28;20205;-56
2023/05/22 03:02:05;;;;;;;6.80;5.50;;;;;;;;;;5074330;28;20204;-56
2023/05/22 03:04:31;;;;;;;6.40;5.77;;;;;;;;;;5073815;28;20609;-56
2023/05/22 03:06:57;;;;;;;5.87;5.37;;;;;;;;;;5073825;28;20642;-56
2023/05/22 03:09:24;;;;;;;6.10;5.50;;;;;;;;;;5073969;28;20202;-56
2023/05/22 03:11:50;;;;;;;6.63;5.37;;;;;;;;;;5073940;28;20201;-56
2023/05/22 03:14:17;;;;;;;6.50;5.50;;;;;;;;;;5073914;28;20205;-57
2023/05/22 03:16:43;;;;;;;5.83;5.33;;;;;;;;;;5073439;28;20619;-56
2023/05/22 03:19:09;;;;;;;6.80;5.50;;;;;;;;;;5073874;28;20199;-56
2023/05/22 03:21:35;;;;;;;6.23;5.43;;;;;;;;;;5073879;28;20209;-56
2023/05/22 03:24:01;;;;;;;6.10;5.50;;;;;;;;;;5073266;28;20553;-56
2023/05/22 03:26:27;;;;;;;6.17;4.93;;;;;;;;;;5073741;28;20210;-57
2023/05/22 03:28:53;;;;;;;5.43;4.93;;;;;;;;;;5073153;28;20292;-56
2023/05/22 03:31:21;;;;;;;7.63;5.37;;;;;;;;;;5073295;28;20297;-56
2023/05/22 03:33:47;;;;;;;5.77;5.27;;;;;;;;;;5073384;28;20740;-56
2023/05/22 03:36:13;;;;;;;5.80;5.20;;;;;;;;;;5073209;28;20244;-56
2023/05/22 03:38:40;;;;;;;5.70;5.10;;;;;;;;;;5073218;28;20226;-56
2023/05/22 03:41:06;;;;;;;6.97;5.30;;;;;;;;;;5073529;28;20554;-55
2023/05/22 03:43:32;;;;;;;6.13;5.53;;;;;;;;;;5073123;28;20317;-55
2023/05/22 03:45:58;;;;;;;6.17;5.40;;;;;;;;;;5073113;28;20236;-56
2023/05/22 03:48:26;;;;;;;5.20;4.80;;;;;;;;;;5073248;28;20199;-56
2023/05/22 03:50:52;;;;;;;6.30;5.27;;;;;;;;;;5073202;28;20209;-56
2023/05/22 03:53:18;;;;;;;6.87;5.10;;;;;;;;;;5073121;28;20276;-57
2023/05/22 03:55:44;;;;;;;5.90;5.40;;;;;;;;;;5072985;28;20682;-55
2023/05/22 03:58:10;;;;;;;6.00;5.50;;;;;;;;;;5073040;28;20209;-55
2023/05/22 04:00:37;;;;;;;6.27;5.17;;;;;;;;;;5073125;28;20203;-55
2023/05/22 04:03:03;;;;;;;5.90;5.40;;;;;;;;;;5072879;28;20277;-55
2023/05/22 04:05:30;;;;;;;5.93;5.37;;;;;;;;;;5072735;28;20509;-56
2023/05/22 04:07:56;;;;;;;6.47;5.07;;;;;;;;;;5072659;28;20210;-56
2023/05/22 04:10:22;;;;;;;5.93;5.33;;;;;;;;;;5072813;28;20212;-56
2023/05/22 04:12:48;;;;;;;6.27;5.67;;;;;;;;;;5072732;28;20721;-55
2023/05/22 04:15:14;;;;;;;5.50;5.00;;;;;;;;;;5072608;28;20198;-55
2023/05/22 04:17:41;;;;;;;5.27;4.73;;;;;;;;;;5072542;28;20676;-55
2023/05/22 04:20:07;;;;;;;6.77;4.90;;;;;;;;;;5072550;28;20633;-55
2023/05/22 04:22:35;;;;;;;5.23;4.77;;;;;;;;;;5072456;28;20249;-55
2023/05/22 04:25:01;;;;;;;5.73;5.23;;;;;;;;;;5072248;28;20225;-57
2023/05/22 04:27:28;;;;;;;6.17;5.00;;;;;;;;;;5071956;28;20221;-57
2023/05/22 04:29:54;;;;;;;5.30;4.80;;;;;;;;;;5072120;28;20215;-55
2023/05/22 04:32:22;;;;;;;5.47;4.80;;;;;;;;;;5072591;28;20664;-55
2023/05/22 04:34:52;;;;;;;5.97;4.80;;;;;;;;;;5072201;28;20201;-57
2023/05/22 04:37:19;;;;;;;5.60;5.13;;;;;;;;;;5072462;28;20202;-56
2023/05/22 04:39:46;;;;;;;5.13;4.70;;;;;;;;;;5072168;28;20191;-56
2023/05/22 04:42:13;;;;;;;7.07;5.07;;;;;;;;;;5071975;28;20222;-56
2023/05/22 04:44:39;;;;;;;6.47;5.63;;;;;;;;;;5071988;28;20234;-56
2023/05/22 04:47:06;;;;;;;6.67;5.97;;;;;;;;;;5071918;28;20198;-56
2023/05/22 04:49:32;;;;;;;5.73;5.03;;;;;;;;;;5072033;28;20202;-55
2023/05/22 04:52:03;;;;;;;7.70;5.53;;;;;;;;;;5071904;28;20532;-55
2023/05/22 04:54:29;;;;;;;5.27;4.77;;;;;;;;;;5071837;28;20694;-55
2023/05/22 04:56:56;;;;;;;5.63;5.03;;;;;;;;;;5072029;28;20202;-55
2023/05/22 04:59:25;;;;;;;5.47;4.77;;;;;;;;;;5072026;28;20225;-60
2023/05/22 05:01:51;;;;;;;5.47;4.80;;;;;;;;;;5071772;28;20562;-57
2023/05/22 05:04:17;;;;;;;6.43;4.97;;;;;;;;;;5071683;28;20242;-57
2023/05/22 05:06:43;;;;;;;5.73;4.90;;;;;;;;;;5071820;28;20199;-57
2023/05/22 05:09:09;;;;;;;5.90;4.90;;;;;;;;;;5071500;28;20231;-57
2023/05/22 05:11:35;;;;;;;5.80;4.77;;;;;;;;;;5071677;28;20202;-56
2023/05/22 05:14:03;;;;;;;6.10;5.47;;;;;;;;;;5071453;28;20195;-57
2023/05/22 05:16:29;;;;;;;5.90;4.93;;;;;;;;;;5071475;28;20567;-56
2023/05/22 05:18:55;;;;;;;5.00;4.50;;;;;;;;;;5071077;28;20282;-57
2023/05/22 05:21:21;;;;;;;6.00;4.70;;;;;;;;;;5071470;28;20225;-56
2023/05/22 05:23:47;;;;;;;4.50;4.20;;;;;;;;;;5071246;28;20743;-56
2023/05/22 05:26:13;;;;;;;6.93;4.70;;;;;;;;;;5071414;28;20238;-56
2023/05/22 05:28:39;;;;;;;5.13;4.63;;;;;;;;;;5071497;28;20206;-57
2023/05/22 05:31:06;;;;;;;4.90;4.50;;;;;;;;;;5071507;28;20226;-58
2023/05/22 05:33:32;;;;;;;7.77;4.90;;;;;;;;;;5071378;28;20202;-57
2023/05/22 05:35:58;;;;;;;5.87;4.60;;;;;;;;;;5071587;28;20273;-57
2023/05/22 05:38:24;;;;;;;5.80;5.20;;;;;;;;;;5071177;28;20658;-57
2023/05/22 05:40:51;;;;;;;4.33;4.03;;;;;;;;;;5075489;28;20195;-57
2023/05/22 05:43:17;;;;;;;6.03;4.80;;;;;;;;;;5075458;28;20213;-57
2023/05/22 05:45:43;;;;;;;5.70;5.07;;;;;;;;;;5075353;28;20253;-56
2023/05/22 05:48:10;;;;;;;6.40;4.77;;;;;;;;;;5075437;28;20226;-57
2023/05/22 05:50:36;;;;;;;5.43;4.90;;;;;;;;;;5075501;28;20200;-57
2023/05/22 05:53:02;;;;;;;7.20;5.20;;;;;;;;;;5075326;28;20202;-56
2023/05/22 05:55:29;;;;;;;4.87;4.47;;;;;;;;;;5075494;28;20206;-55
2023/05/22 05:57:55;;;;;;;5.00;4.40;;;;;;;;;;5075254;28;20225;-56
2023/05/22 06:00:21;;;;;;;7.10;4.67;;;;;;;;;;5075256;28;20695;-56
2023/05/22 06:02:47;;;;;;;5.23;4.37;;;;;;;;;;5075176;28;20207;-56
2023/05/22 06:05:17;;;;;;;5.97;4.27;;;;;;;;;;5074839;28;20237;-55
2023/05/22 06:07:43;;;;;;;5.27;4.67;;;;;;;;;;5075157;28;20211;-55
2023/05/22 06:10:10;;;;;;;6.33;4.40;;;;;;;;;;5074774;28;20203;-56
2023/05/22 06:12:36;;;;;;;5.83;5.20;;;;;;;;;;5075179;28;20198;-57
2023/05/22 06:15:03;;;;;;;5.63;5.10;;;;;;;;;;5074771;28;20551;-57
2023/05/22 06:17:30;;;;;;;6.73;4.50;;;;;;;;;;5074843;28;20199;-58
2023/05/22 06:19:56;;;;;;;4.97;4.50;;;;;;;;;;5074786;28;20253;-57
2023/05/22 06:22:25;;;;;;;5.50;5.00;;;;;;;;;;5074537;28;20729;-57
2023/05/22 06:24:53;;;;;;;5.80;4.83;;;;;;;;;;5074897;28;20693;-56
2023/05/22 06:27:19;;;;;;;5.63;4.70;;;;;;;;;;5074892;28;20223;-56
2023/05/22 06:29:45;;;;;;;5.33;4.60;;;;;;;;;;5074462;28;20200;-56
2023/05/22 06:32:11;;;;;;;12.93;5.43;;;;;;;;;;5074342;28;20199;-56
2023/05/22 06:34:37;;;;;;;5.83;4.80;;;;;;;;;;5074547;28;20604;-56
2023/05/22 06:37:03;;;;;;;8.47;5.43;;;;;;;;;;5074342;28;20258;-56
2023/05/22 06:39:30;;;;;;;6.20;4.80;;;;;;;;;;5074397;28;20222;-56
2023/05/22 06:41:56;;;;;;;5.33;4.83;;;;;;;;;;5074344;28;20624;-58
2023/05/22 06:44:24;;;;;;;5.50;4.50;;;;;;;;;;5074434;28;20230;-57
2023/05/22 06:46:50;;;;;;;9.50;4.93;;;;;;;;;;5074506;28;20252;-58
2023/05/22 06:49:16;;;;;;;5.17;4.70;;;;;;;;;;5074231;28;20203;-56
2023/05/22 06:51:44;;;;;;;6.13;4.93;;;;;;;;;;5073480;28;20196;-56
2023/05/22 06:54:12;;;;;;;6.70;5.43;;;;;;;;;;5074002;28;20199;-57
2023/05/22 06:56:42;;;;;;;5.70;5.00;;;;;;;;;;5074086;28;20567;-58
2023/05/22 06:59:10;;;;;;;6.07;4.60;;;;;;;;;;5074056;28;20670;-57
2023/05/22 07:01:36;;;;;;;7.70;5.30;;;;;;;;;;5074298;28;20211;-57
2023/05/22 07:04:04;;;;;;;5.47;4.97;;;;;;;;;;5073933;28;20223;-59
2023/05/22 07:06:32;;;;;;;6.47;5.23;;;;;;;;;;5073909;28;20203;-57
2023/05/22 07:08:58;;;;;;;5.13;4.67;;;;;;;;;;5073662;28;20210;-56
2023/05/22 07:11:24;;;;;;;7.73;4.87;;;;;;;;;;5073856;28;20247;-56
2023/05/22 07:13:52;;;;;;;6.93;4.90;;;;;;;;;;5073958;28;20267;-57
2023/05/22 07:16:18;;;;;;;6.33;4.90;;;;;;;;;;5073750;28;20290;-55
2023/05/22 07:18:44;;;;;;;5.67;4.70;;;;;;;;;;5073720;28;20436;-53
2023/05/22 07:21:10;;;;;;;4.60;4.20;;;;;;;;;;5073628;28;20196;-55
2023/05/22 07:23:36;;;;;;;4.87;4.47;;;;;;;;;;5073515;28;20235;-54
2023/05/22 07:26:02;;;;;;;5.20;4.70;;;;;;;;;;5073594;28;20249;-55
2023/05/22 07:28:29;;;;;;;5.03;4.53;;;;;;;;;;5073604;28;20558;-62
2023/05/22 07:30:56;;;;;;;5.30;4.80;;;;;;;;;;5073545;28;20263;-55
2023/05/22 07:33:22;;;;;;;5.67;5.23;;;;;;;;;;5073507;28;20365;-56
2023/05/22 07:35:48;;;;;;;7.77;4.70;;;;;;;;;;5073465;28;20270;-56
2023/05/22 07:38:14;;;;;;;5.20;4.80;;;;;;;;;;5073331;28;20601;-56
2023/05/22 07:40:40;;;;;;;5.53;4.63;;;;;;;;;;5071587;28;20207;-55
2023/05/22 07:43:06;;;;;;;5.90;4.80;;;;;;;;;;5065626;28;20236;-56
2023/05/22 07:45:32;;;;;;;7.57;5.00;;;;;;;;;;5068699;28;20660;-55
2023/05/22 07:48:02;;;;;;;5.80;5.20;;;;;;;;;;5072787;28;20688;-56
2023/05/22 07:50:29;;;;;;;6.97;4.90;;;;;;;;;;5072621;28;20234;-54
2023/05/22 07:52:55;;;;;;;7.97;5.67;;;;;;;;;;5072507;28;20207;-54
2023/05/22 07:55:21;;;;;;;6.60;5.00;;;;;;;;;;5072666;28;20283;-54
2023/05/22 07:57:47;;;;;;;5.30;4.90;;;;;;;;;;5072719;28;20271;-53
2023/05/22 08:00:15;;;;;;;7.70;4.80;;;;;;;;;;5072585;28;20594;-54
2023/05/22 08:02:41;;;;;;;4.83;4.43;;;;;;;;;;5071623;28;20223;-53
2023/05/22 08:05:09;;;;;;;7.37;5.40;;;;;;;;;;5071869;28;20262;-54
2023/05/22 08:07:35;;;;;;;6.30;5.00;;;;;;;;;;5072775;28;20208;-53
2023/05/22 08:10:02;;;;;;;5.97;5.40;;;;;;;;;;5072464;28;20207;-54
2023/05/22 08:12:28;;;;;;;6.60;4.83;;;;;;;;;;5072591;28;20198;-54
2023/05/22 08:14:54;;;;;;;7.63;4.77;;;;;;;;;;5072435;28;20188;-53
2023/05/22 08:17:20;;;;;;;7.03;5.50;;;;;;;;;;5071816;28;20377;-54
2023/05/22 08:19:46;;;;;;;7.37;5.17;;;;;;;;;;5072251;28;20187;-54
2023/05/22 08:22:13;;;;;;;8.17;5.07;;;;;;;;;;5072161;28;20187;-54
2023/05/22 08:24:39;;;;;;;5.97;4.90;;;;;;;;;;5072136;28;20216;-55
2023/05/22 08:27:06;;;;;;;5.80;4.70;;;;;;;;;;5072209;28;20196;-54
2023/05/22 08:29:32;;;;;;;5.80;5.17;;;;;;;;;;5071818;28;20234;-54
2023/05/22 08:31:58;;;;;;;6.07;4.90;;;;;;;;;;5072159;28;20200;-54
2023/05/22 08:34:24;;;;;;;6.93;5.20;;;;;;;;;;5071742;28;20291;-53
2023/05/22 08:36:50;;;;;;;5.63;5.07;;;;;;;;;;5071914;28;20212;-54
2023/05/22 08:39:17;;;;;;;6.63;4.67;;;;;;;;;;5071510;28;20201;-54
2023/05/22 08:41:44;;;;;;;7.83;4.87;;;;;;;;;;5071628;28;20565;-54
2023/05/22 08:44:10;;;;;;;5.07;4.47;;;;;;;;;;5072042;28;20229;-54
2023/05/22 08:46:40;;;;;;;5.23;4.70;;;;;;;;;;5072066;28;20202;-54
2023/05/22 08:49:08;;;;;;;8.27;5.10;;;;;;;;;;5071767;28;20225;-54
2023/05/22 08:51:37;;;;;;;5.77;4.87;;;;;;;;;;5072158;28;20190;-53
2023/05/22 08:54:04;;;;;;;5.83;4.40;;;;;;;;;;5071485;28;20200;-54
2023/05/22 08:56:32;;;;;;;6.37;4.50;;;;;;;;;;5071469;28;20206;-54
2023/05/22 08:59:00;;;;;;;5.87;5.13;;;;;;;;;;5071638;28;20594;-54
2023/05/22 09:01:26;;;;;;;7.57;4.90;;;;;;;;;;5071230;28;20233;-54
2023/05/22 09:03:52;;;;;;;4.70;4.30;;;;;;;;;;5071583;28;20244;-55
2023/05/22 09:06:18;;;;;;;6.70;4.83;;;;;;;;;;5071194;28;20684;-54
2023/05/22 09:08:44;;;;;;;5.73;4.90;;;;;;;;;;5071503;28;20201;-54
2023/05/22 09:11:11;;;;;;;4.87;4.33;;;;;;;;;;5071334;28;20294;-53
2023/05/22 09:13:40;;;;;;;5.63;4.47;;;;;;;;;;5071297;28;20257;-54
2023/05/22 09:16:10;;;;;;;6.93;4.80;;;;;;;;;;5071525;28;20222;-54
2023/05/22 09:18:37;;;;;;;6.40;4.63;;;;;;;;;;5071277;28;20196;-55
2023/05/22 09:21:03;;;;;;;7.20;4.20;;;;;;;;;;5071458;28;20693;-55
2023/05/22 09:23:29;;;;;;;6.47;5.13;;;;;;;;;;5070882;28;20251;-52
2023/05/22 09:25:57;;;;;;;6.40;4.70;;;;;;;;;;5071304;28;20242;-52
2023/05/22 09:28:23;;;;;;;6.87;4.77;;;;;;;;;;5071245;28;20194;-53
2023/05/22 09:30:51;;;;;;;5.83;4.80;;;;;;;;;;5071065;28;20219;-55
2023/05/22 09:33:17;;;;;;;8.57;4.80;;;;;;;;;;5068580;28;20204;-53
2023/05/22 09:35:45;;;;;;;6.20;4.80;;;;;;;;;;5069307;28;20219;-53
2023/05/22 09:38:11;;;;;;;5.17;4.67;;;;;;;;;;5071064;28;20261;-53
2023/05/22 09:40:38;;;;;;;5.63;4.40;;;;;;;;;;5071234;28;20202;-53
2023/05/22 09:43:06;;;;;;;6.67;4.77;;;;;;;;;;5071141;28;20246;-53
2023/05/22 09:45:33;;;;;;;5.43;4.93;;;;;;;;;;5070795;28;20255;-54
2023/05/22 09:48:01;;;;;;;6.67;5.13;;;;;;;;;;5071275;28;20201;-54
2023/05/22 09:50:27;;;;;;;4.57;4.03;;;;;;;;;;5070882;28;20402;-53
2023/05/22 09:52:53;;;;;;;5.13;4.60;;;;;;;;;;5071152;28;20193;-54
2023/05/22 09:55:23;;;;;;;6.00;4.73;;;;;;;;;;5070761;28;20198;-54
2023/05/22 09:57:51;;;;;;;8.17;4.57;;;;;;;;;;5071185;28;20251;-54
2023/05/22 10:00:18;;;;;;;4.80;4.37;;;;;;;;;;5071164;28;20194;-54
2023/05/22 10:02:45;;;;;;;4.93;4.43;;;;;;;;;;5071233;28;20254;-53
2023/05/22 10:05:22;;;;;;;4.87;4.40;;;;;;;;;;5070849;28;20669;-53
2023/05/22 10:07:49;;;;;;;5.47;4.17;;;;;;;;;;5068911;28;20198;-54
2023/05/22 10:10:17;;;;;;;6.33;4.57;;;;;;;;;;5069478;28;20203;-54
2023/05/22 10:12:44;;;;;;;6.73;4.80;;;;;;;;;;5071105;28;20247;-54
2023/05/22 10:15:11;;;;;;;5.47;4.63;;;;;;;;;;5071182;28;20229;-54
2023/05/22 10:17:37;;;;;;;5.43;4.50;;;;;;;;;;5071184;28;20215;-55
2023/05/22 10:20:06;;;;;;;6.40;4.80;;;;;;;;;;5071190;28;20264;-55
2023/05/22 10:22:35;;;;;;;4.90;4.50;;;;;;;;;;5070858;28;20246;-54
2023/05/22 10:25:01;;;;;;;6.00;5.03;;;;;;;;;;5070902;28;20728;-54
2023/05/22 10:27:27;;;;;;;6.80;4.60;;;;;;;;;;5063539;28;20697;-54
2023/05/22 10:29:56;;;;;;;5.07;4.60;;;;;;;;;;5072984;28;20192;-53
2023/05/22 10:32:27;;;;;;;6.73;4.20;;;;;;;;;;5073278;28;20216;-53
2023/05/22 10:34:57;;;;;;;5.07;4.63;;;;;;;;;;5074429;28;20258;-54
2023/05/22 10:37:29;;;;;;;6.23;4.63;;;;;;;;;;5073792;28;20196;-54
2023/05/22 10:40:01;;;;;;;7.60;4.73;;;;;;;;;;5074164;28;20192;-53
2023/05/22 10:42:28;;;;;;;5.47;4.33;;;;;;;;;;5073994;28;20604;-53
2023/05/22 10:44:54;;;;;;;5.73;4.50;;;;;;;;;;5074171;28;20220;-54
2023/05/22 10:47:20;;;;;;;5.90;4.93;;;;;;;;;;5074090;28;20613;-54
2023/05/22 10:49:48;;;;;;;7.70;4.70;;;;;;;;;;5073713;28;20189;-54
2023/05/22 10:52:17;;;;;;;5.83;4.27;;;;;;;;;;5073891;28;20200;-55
2023/05/22 10:54:44;;;;;;;7.93;4.50;;;;;;;;;;5073978;28;20556;-55
2023/05/22 10:57:13;;;;;;;6.10;4.53;;;;;;;;;;5074013;28;20214;-56
2023/05/22 10:59:39;;;;;;;7.10;4.20;;;;;;;;;;5073800;28;20861;-55
2023/05/22 11:02:05;;;;;;;4.87;4.40;;;;;;;;;;5073590;28;20279;-55
2023/05/22 11:04:31;;;;;;;5.33;4.80;;;;;;;;;;5073583;28;20221;-54
2023/05/22 11:07:05;;;;;;;9.97;4.87;;;;;;;;;;5073502;28;20204;-54
2023/05/22 11:09:32;;;;;;;6.07;4.83;;;;;;;;;;5073780;28;20283;-54
2023/05/22 11:12:15;;;;;;;7.60;5.33;;;;;;;;;;5073603;28;20190;-54
2023/05/22 11:14:42;;;;;;;5.60;5.10;;;;;;;;;;5073276;28;20573;-54
2023/05/22 11:17:11;;;;;;;6.00;4.67;;;;;;;;;;5073548;28;20724;-54
2023/05/22 11:19:39;;;;;;;5.77;4.73;;;;;;;;;;5073350;28;20202;-53
2023/05/22 11:22:05;;;;;;;5.43;4.50;;;;;;;;;;5073405;28;20228;-53
2023/05/22 11:24:33;;;;;;;5.27;4.60;;;;;;;;;;5073278;28;20637;-53
2023/05/22 11:27:04;;;;;;;6.73;5.07;;;;;;;;;;5073133;28;20282;-54
2023/05/22 11:29:31;;;;;;;5.33;4.53;;;;;;;;;;5073159;28;20627;-54
2023/05/22 11:31:58;;;;;;;8.97;4.83;;;;;;;;;;5073330;28;20195;-54
2023/05/22 11:34:24;;;;;;;6.57;4.70;;;;;;;;;;5071343;28;20191;-53
2023/05/22 11:36:51;;;;;;;11.10;5.30;;;;;;;;;;5072520;28;20688;-52
2023/05/22 11:39:17;;;;;;;30.77;6.63;;;;;;;;;;5072711;28;20199;-54
2023/05/22 11:41:43;;;;;;;5.30;4.73;;;;;;;;;;5072639;28;20293;-53
2023/05/22 11:44:09;;;;;;;6.07;4.60;;;;;;;;;;5072440;28;20294;-54
2023/05/22 11:46:38;;;;;;;20.13;5.67;;;;;;;;;;5072997;28;20206;-52
2023/05/22 11:49:05;;;;;;;7.70;5.57;;;;;;;;;;5073207;28;20256;-52
2023/05/22 11:51:32;;;;;;;9.57;5.03;;;;;;;;;;5072437;28;20203;-53
2023/05/22 11:53:58;;;;;;;7.50;5.43;;;;;;;;;;5072716;28;20206;-52
2023/05/22 11:56:24;;;;;;;6.37;5.13;;;;;;;;;;5072689;28;20199;-53
2023/05/22 11:58:50;;;;;;;6.27;5.70;;;;;;;;;;5072871;28;20199;-52
2023/05/22 12:01:16;;;;;;;7.57;5.53;;;;;;;;;;5072711;28;20719;-53
2023/05/22 12:03:44;;;;;;;6.93;5.20;;;;;;;;;;5072160;28;20211;-53
2023/05/22 12:06:10;;;;;;;26.27;6.40;;;;;;;;;;5072715;28;20227;-53
2023/05/22 12:08:36;;;;;;;12.23;6.23;;;;;;;;;;5072460;28;20199;-53
2023/05/22 12:11:04;;;;;;;12.70;5.93;;;;;;;;;;5072306;28;20711;-53
2023/05/22 12:13:31;;;;;;;7.90;5.07;;;;;;;;;;5072175;28;20198;-53
2023/05/22 12:16:01;;;;;;;8.50;5.23;;;;;;;;;;5070121;28;20202;-53
2023/05/22 12:18:27;;;;;;;7.60;5.60;;;;;;;;;;5072572;28;20203;-53
2023/05/22 12:20:55;;;;;;;8.03;5.50;;;;;;;;;;5072900;28;20194;-54
2023/05/22 12:23:22;;;;;;;8.83;5.40;;;;;;;;;;5072229;28;20238;-54
2023/05/22 12:25:55;;;;;;;5.53;5.03;;;;;;;;;;5071416;28;20708;-53
2023/05/22 12:28:21;;;;;;;6.67;5.10;;;;;;;;;;5071278;28;20199;-53
2023/05/22 12:30:51;;;;;;;9.13;5.17;;;;;;;;;;5072273;28;20274;-52
2023/05/22 12:33:18;;;;;;;5.80;5.20;;;;;;;;;;5072401;28;20195;-52
2023/05/22 12:35:44;;;;;;;5.53;5.03;;;;;;;;;;5070281;28;20278;-53
2023/05/22 12:38:12;;;;;;;7.47;5.47;;;;;;;;;;5070121;28;20688;-53
2023/05/22 12:40:38;;;;;;;7.67;5.07;;;;;;;;;;5072188;28;20215;-53
2023/05/22 12:43:04;;;;;;;6.20;5.43;;;;;;;;;;5072497;28;20203;-52
2023/05/22 12:45:30;;;;;;;7.40;4.80;;;;;;;;;;5071924;28;20224;-53
2023/05/22 12:47:56;;;;;;;7.13;5.40;;;;;;;;;;5071994;28;20220;-54
2023/05/22 12:50:22;;;;;;;5.53;5.03;;;;;;;;;;5071302;28;20197;-54
2023/05/22 12:52:48;;;;;;;6.00;4.80;;;;;;;;;;5071935;28;20197;-54
2023/05/22 12:55:15;;;;;;;7.73;5.00;;;;;;;;;;5071985;28;20634;-54
2023/05/22 12:57:41;;;;;;;5.93;5.43;;;;;;;;;;5071826;28;20201;-55
2023/05/22 13:00:08;;;;;;;6.37;5.10;;;;;;;;;;5071919;28;20203;-54
2023/05/22 13:02:34;;;;;;;7.70;5.23;;;;;;;;;;5071885;28;20208;-54
2023/05/22 13:05:00;;;;;;;5.17;4.70;;;;;;;;;;5071877;28;20234;-54
2023/05/22 13:07:26;;;;;;;4.87;4.37;;;;;;;;;;5071643;28;20932;-54
2023/05/22 13:09:52;;;;;;;6.27;4.97;;;;;;;;;;5071776;28;20226;-54
2023/05/22 13:12:20;;;;;;;28.50;8.10;;;;;;;;;;5071941;28;20264;-54
2023/05/22 13:14:46;;;;;;;6.33;5.70;;;;;;;;;;5071553;28;20202;-53
2023/05/22 13:17:12;;;;;;;8.77;5.70;;;;;;;;;;5071632;28;20616;-54
2023/05/22 13:19:38;;;;;;;9.23;5.50;;;;;;;;;;5071648;28;20198;-54
2023/05/22 13:22:06;;;;;;;7.37;5.13;;;;;;;;;;5071601;28;20183;-54
2023/05/22 13:24:32;;;;;;;5.70;5.10;;;;;;;;;;5071424;28;20759;-53
2023/05/22 13:26:58;;;;;;;6.20;5.53;;;;;;;;;;5071572;28;20656;-54
2023/05/22 13:29:25;;;;;;;6.13;5.57;;;;;;;;;;5071536;28;20290;-54
2023/05/22 13:31:51;;;;;;;6.03;5.17;;;;;;;;;;5071651;28;20206;-53
2023/05/22 13:34:17;;;;;;;10.77;5.80;;;;;;;;;;5071613;28;20617;-53
2023/05/22 13:36:43;;;;;;;7.00;5.20;;;;;;;;;;5071454;28;20678;-53
2023/05/22 13:39:09;;;;;;;5.53;4.97;;;;;;;;;;5071629;28;20203;-53
2023/05/22 13:41:35;;;;;;;5.47;4.97;;;;;;;;;;5071476;28;20710;-53
2023/05/22 13:44:01;;;;;;;7.80;5.57;;;;;;;;;;5071563;28;20262;-53
2023/05/22 13:46:28;;;;;;;6.30;5.30;;;;;;;;;;5071313;28;20251;-53
2023/05/22 13:48:54;;;;;;;6.30;5.63;;;;;;;;;;5071220;28;20206;-54
2023/05/22 13:51:20;;;;;;;6.63;5.50;;;;;;;;;;5071378;28;20669;-53
2023/05/22 13:53:46;;;;;;;5.97;5.33;;;;;;;;;;5066712;28;20215;-55
2023/05/22 13:56:12;;;;;;;5.73;5.00;;;;;;;;;;5066030;28;20195;-55
2023/05/22 13:58:39;;;;;;;6.80;5.30;;;;;;;;;;5070713;28;20281;-55
2023/05/22 14:01:05;;;;;;;6.17;5.57;;;;;;;;;;5073870;28;20200;-55
2023/05/22 14:03:32;;;;;;;7.03;5.20;;;;;;;;;;5074866;28;20194;-54
2023/05/22 14:05:58;;;;;;;6.53;5.30;;;;;;;;;;5074897;28;20238;-53
2023/05/22 14:08:24;;;;;;;8.43;5.77;;;;;;;;;;5071249;28;20202;-54
2023/05/22 14:10:50;;;;;;;6.80;5.50;;;;;;;;;;5075006;28;20211;-55
2023/05/22 14:13:16;;;;;;;10.50;5.43;;;;;;;;;;5075185;28;20205;-54
2023/05/22 14:15:45;;;;;;;8.43;5.30;;;;;;;;;;5074953;28;20203;-54
2023/05/22 14:18:11;;;;;;;5.37;4.70;;;;;;;;;;5075070;28;20616;-54
2023/05/22 14:20:40;;;;;;;5.77;5.17;;;;;;;;;;5074881;28;20228;-54
2023/05/22 14:23:06;;;;;;;5.40;4.90;;;;;;;;;;5072865;28;20244;-55
2023/05/22 14:25:32;;;;;;;6.17;5.20;;;;;;;;;;5074043;28;20226;-55
2023/05/22 14:27:58;;;;;;;6.87;5.23;;;;;;;;;;5074452;28;20272;-56
2023/05/22 14:30:24;;;;;;;8.60;5.23;;;;;;;;;;5074561;28;20607;-55
2023/05/22 14:32:50;;;;;;;7.57;5.37;;;;;;;;;;5074411;28;20209;-56
2023/05/22 14:35:16;;;;;;;6.03;4.77;;;;;;;;;;5074500;28;20221;-56
2023/05/22 14:37:44;;;;;;;5.50;4.90;;;;;;;;;;5074171;28;20186;-56
2023/05/22 14:40:10;;;;;;;5.60;5.00;;;;;;;;;;5074278;28;20209;-56